Bowman Field Louisville US
ICAO: KLOU
IATA: LOU
Category: Medium
Scheduled Services: No

Elevation: 546 ft
TransAlt. 18000 ft.

Airport Communications:
LOUISVILLE APP/DEP:123.675
ATIS:112.2
CLNC DEL:118.9
CTAF:119.5
GND:121.8
LOUISVILLE RDO:122.2
TWR:119.5
UNICOM:122.95

KLOU Zoom In..

If Map Doesn't Load, Click Here

Runways:

(A) RW 06 length 4358 ft width 75 ft
---- / hdg 64

(B) RW 15 length 3580 ft width 75 ft
---- / hdg 147

(C) RW 24 length 4358 ft width 75 ft
---- / hdg 244

(D) RW 33 length 3580 ft width 75 ft
---- / hdg 327

Location; KLOU
Day. 23 / Time. 08.32 Zulu
* Altimeter: 30.06
* Temperature: 17° c. 62.6°f.
* Wind from: 030° Speed 05 kn.
Dewpoint: 17° c.
Visibility: 3 Statute Miles.
Clouds: Few 900 ft.
Clouds: Overcast 1600 ft.
Conditions: Rain.Conditions: Mist.

KLOU 230832Z AUTO 03005KT 3SM RA BR FEW009 OVC016 17/17 A3006 RMK AO2 P0006 T01720167


Wind From 030°
Speed 05 kn.

 
 
jpsmedia.com for Web Design worldairports.se 2018   terms of use